This is the latest recevied weather packets stored in our database for station/object KF0PEC-15. If no packets are shown the sender has not sent any weather packets the latest 10 day(s).
| Time | Temp. | Humidity | Pressure | Rain* | Wind** | Luminosity | Snow |
|---|---|---|---|---|---|---|---|
| 1777505545 | 7.78° C | 79% | 1021 hPa | 2.29 mm | - | 254 W/m² | - |
| 1777505030 | 9.44° C | 69% | 1019.6 hPa | 0.76 mm | - | 224 W/m² | - |
| 1777504515 | 10° C | 64% | 1018.8 hPa | 0 mm | - | 217 W/m² | - |
| 1777503945 | 10° C | 63% | 1018.5 hPa | 0 mm | - | 229 W/m² | - |
| 1777503375 | 10.56° C | 63% | 1018.1 hPa | 0 mm | - | 232 W/m² | - |
| 1777502835 | 10.56° C | 63% | 1017.7 hPa | 0 mm | - | 393 W/m² | - |
| 1777502330 | 10.56° C | 61% | 1017.5 hPa | 0 mm | - | 930 W/m² | - |
| 1777501775 | 11.11° C | 59% | 1017.2 hPa | 0 mm | - | 116 W/m² | - |
| 1777501235 | 11.11° C | 58% | 1017.2 hPa | 0 mm | - | 137 W/m² | - |
| 1777500649 | 11.11° C | 59% | 1017.1 hPa | 0 mm | - | 294 W/m² | - |
| 1777500155 | 10.56° C | 59% | 1017.8 hPa | 0 mm | - | 354 W/m² | - |
| 1777499605 | 11.11° C | 59% | 1017.7 hPa | 0 mm | - | 398 W/m² | - |
| 1777499080 | 9.44° C | 69% | 1019.4 hPa | 0 mm | - | 579 W/m² | - |
| 1777498497 | 8.89° C | 71% | 1019.8 hPa | 0 mm | - | 147 W/m² | - |
| 1777497990 | 8.89° C | 72% | 1019.8 hPa | 0 mm | - | 138 W/m² | - |
| 1777497395 | 9.44° C | 69% | 1019.9 hPa | 0 mm | - | 111 W/m² | - |
| 1777496845 | 10° C | 71% | 1019.4 hPa | 0 mm | - | 977 W/m² | - |
| 1777496257 | 8.89° C | 71% | 1019.9 hPa | 0 mm | - | 196 W/m² | - |
| 1777495690 | 9.44° C | 74% | 1019.9 hPa | 0 mm | - | 117 W/m² | - |
| 1777495170 | 9.44° C | 72% | 1019.8 hPa | 0 mm | - | 165 W/m² | - |
| 1777494605 | 9.44° C | 76% | 1019.9 hPa | 0 mm | - | 485 W/m² | - |
| 1777494037 | 8.89° C | 78% | 1020.8 hPa | 0 mm | - | 678 W/m² | - |
| 1777493550 | 6.67° C | 87% | 1022.5 hPa | 0 mm | - | 564 W/m² | - |
| 1777493005 | 7.22° C | 86% | 1021.7 hPa | 0.51 mm | - | 877 W/m² | - |
| 1777492480 | 7.22° C | 84% | 1021.9 hPa | 0.25 mm | - | 677 W/m² | - |
* Rain latest hour (hover to see other rain measurements)
** Current wind speed in m/s (hover to see current wind gust speed)